Time;durP1;ratioP1;P1;durP2;ratioP2;P2;SDS_P1;SDS_P2;PMS_P1;PMS_P2;Temp;Humidity;BMP_temperature;BMP_pressure;BME280_temperature;BME280_humidity;BME280_pressure;Samples;Min_cycle;Max_cycle;Signal;HPM_P1;HPM_P2
2023/07/22 00:01:28;;;;;;;5.93;4.13;;;15.30;99.90;14.70;99912;;;;595209;237;24177;-80
2023/07/22 00:03:55;;;;;;;6.20;4.00;;;15.30;99.90;14.70;99901;;;;594568;235;24050;-76
2023/07/22 00:06:23;;;;;;;4.27;3.70;;;15.20;99.90;14.70;99893;;;;604152;237;24017;-75
2023/07/22 00:08:51;;;;;;;11.10;7.67;;;15.30;99.90;14.60;99890;;;;594450;237;25118;-76
2023/07/22 00:11:19;;;;;;;9.73;7.03;;;15.20;99.90;14.60;99892;;;;569682;248;24096;-79
2023/07/22 00:13:47;;;;;;;6.87;4.03;;;15.20;99.90;14.60;99887;;;;594562;233;24070;-79
2023/07/22 00:16:15;;;;;;;3.53;3.17;;;15.10;99.90;14.50;99890;;;;594930;237;24081;-80
2023/07/22 00:18:43;;;;;;;8.07;3.23;;;15.10;99.90;14.50;99881;;;;594464;238;24065;-78
2023/07/22 00:21:12;;;;;;;4.50;2.83;;;15.10;99.90;14.50;99884;;;;604111;238;24141;-77
2023/07/22 00:23:39;;;;;;;3.60;3.07;;;15.00;99.90;14.40;99883;;;;594641;238;24029;-77
2023/07/22 00:26:09;;;;;;;3.10;2.87;;;15.00;99.90;14.40;99882;;;;569714;248;24084;-79
2023/07/22 00:28:35;;;;;;;9.93;7.10;;;15.00;99.90;14.30;99882;;;;594406;233;24027;-82
2023/07/22 00:31:04;;;;;;;5.87;4.37;;;14.90;99.90;14.30;99878;;;;594309;238;24025;-80
2023/07/22 00:33:32;;;;;;;6.10;5.47;;;14.90;99.90;14.30;99875;;;;594307;238;24064;-80
2023/07/22 00:36:00;;;;;;;6.80;3.70;;;14.90;99.90;14.30;99869;;;;594888;238;24032;-78
2023/07/22 00:38:28;;;;;;;4.73;4.23;;;14.90;99.90;14.30;99872;;;;594989;238;24033;-77
2023/07/22 00:40:56;;;;;;;3.67;3.07;;;14.90;99.90;14.30;99867;;;;594595;238;24020;-75
2023/07/22 00:43:25;;;;;;;4.13;2.80;;;14.90;99.90;14.30;99866;;;;594345;238;24075;-77
2023/07/22 00:45:51;;;;;;;5.20;4.37;;;14.90;99.90;14.30;99864;;;;594432;234;24023;-77
2023/07/22 00:48:19;;;;;;;8.23;4.07;;;14.90;99.90;14.20;99858;;;;594265;238;24036;-77
2023/07/22 00:50:47;;;;;;;4.00;2.97;;;14.80;99.90;14.20;99858;;;;602214;238;24047;-78
2023/07/22 00:53:18;;;;;;;2.97;2.73;;;14.80;99.90;14.20;99860;;;;604406;236;24040;-77
2023/07/22 00:55:44;;;;;;;4.70;3.23;;;14.80;99.90;14.20;99852;;;;595862;235;24049;-76
2023/07/22 00:58:12;;;;;;;3.30;2.63;;;14.70;99.90;14.20;99857;;;;605016;234;24076;-77
2023/07/22 01:00:40;;;;;;;4.33;2.73;;;14.70;99.90;14.20;99858;;;;595247;237;24088;-77
2023/07/22 01:03:10;;;;;;;4.07;2.97;;;14.80;99.90;14.20;99850;;;;567960;245;24078;-77
2023/07/22 01:05:36;;;;;;;2.77;2.57;;;14.70;99.90;14.10;99841;;;;602267;237;24075;-76
2023/07/22 01:08:03;;;;;;;4.27;3.03;;;14.80;99.90;14.10;99842;;;;602285;237;24047;-77
2023/07/22 01:10:32;;;;;;;2.90;2.47;;;14.70;99.90;14.10;99832;;;;602510;237;24061;-78
2023/07/22 01:13:00;;;;;;;4.03;2.70;;;14.70;99.90;14.10;99838;;;;594669;237;24028;-80
2023/07/22 01:15:31;;;;;;;3.30;2.67;;;14.70;99.90;14.10;99835;;;;594563;237;24140;-80
2023/07/22 01:18:01;;;;;;;3.70;2.60;;;14.70;99.90;14.10;99829;;;;594450;237;24045;-77
2023/07/22 01:20:26;;;;;;;5.73;2.83;;;14.70;99.90;14.10;99817;;;;601615;237;25161;-80
2023/07/22 01:22:55;;;;;;;4.50;3.03;;;14.70;99.90;14.10;99825;;;;598083;237;24118;-80
2023/07/22 01:25:23;;;;;;;3.27;2.83;;;14.60;99.90;14.10;99811;;;;604478;237;24127;-77
2023/07/22 01:27:54;;;;;;;2.87;2.50;;;14.70;99.90;14.10;99813;;;;567614;247;24202;-77
2023/07/22 01:30:22;;;;;;;4.33;3.03;;;14.60;99.90;14.00;99817;;;;594536;237;24070;-79
2023/07/22 01:32:50;;;;;;;2.80;2.40;;;14.60;99.90;14.00;99800;;;;594626;238;24039;-80
2023/07/22 01:35:18;;;;;;;2.40;2.20;;;14.60;99.90;14.00;99800;;;;594734;238;24055;-79
2023/07/22 01:37:47;;;;;;;3.17;2.43;;;14.50;99.90;13.90;99794;;;;567670;245;24093;-78
2023/07/22 01:40:14;;;;;;;4.07;2.93;;;14.50;99.90;13.90;99790;;;;594411;238;24024;-79
2023/07/22 01:42:42;;;;;;;3.60;2.70;;;14.50;99.90;13.90;99795;;;;594342;238;24133;-77
2023/07/22 01:45:10;;;;;;;4.70;2.97;;;14.50;99.90;13.90;99789;;;;601905;238;24051;-76
2023/07/22 01:47:40;;;;;;;2.10;1.93;;;14.40;99.90;13.80;99788;;;;567413;245;24078;-76
2023/07/22 01:50:11;;;;;;;4.27;2.73;;;14.40;99.90;13.70;99788;;;;601669;238;24095;-76
2023/07/22 01:52:36;;;;;;;3.70;2.80;;;14.30;99.90;13.70;99790;;;;591972;238;24056;-76
2023/07/22 01:55:08;;;;;;;4.27;2.83;;;14.30;99.90;13.60;99784;;;;604094;238;24023;-76
2023/07/22 01:57:35;;;;;;;4.87;3.83;;;14.20;99.90;13.50;99783;;;;601922;238;24028;-77
2023/07/22 02:00:00;;;;;;;10.00;7.37;;;14.20;99.90;13.40;99780;;;;576826;248;24228;-75
2023/07/22 02:02:29;;;;;;;3.10;2.70;;;14.00;99.90;13.30;99779;;;;594709;238;24077;-75
2023/07/22 02:04:57;;;;;;;5.83;2.70;;;13.90;99.90;13.20;99788;;;;595313;237;25133;-80
2023/07/22 02:07:26;;;;;;;3.00;2.70;;;13.80;99.90;13.10;99777;;;;596025;237;24063;-79
2023/07/22 02:09:53;;;;;;;2.67;2.37;;;13.80;99.90;13.10;99783;;;;595765;234;24064;-76
2023/07/22 02:12:21;;;;;;;5.87;2.67;;;13.70;99.90;13.00;99781;;;;595522;237;24017;-75
2023/07/22 02:14:50;;;;;;;3.87;2.53;;;13.50;99.90;12.90;99775;;;;595376;237;24069;-77
2023/07/22 02:17:18;;;;;;;4.80;3.00;;;13.50;99.90;12.80;99778;;;;595216;237;24028;-75
2023/07/22 02:19:46;;;;;;;6.30;2.97;;;13.50;99.90;12.80;99780;;;;595367;237;24075;-76
2023/07/22 02:22:13;;;;;;;3.00;2.57;;;13.40;99.90;12.80;99776;;;;570294;247;24067;-77
2023/07/22 02:24:41;;;;;;;7.90;2.83;;;13.40;99.90;12.80;99775;;;;603957;236;24055;-77
2023/07/22 02:27:09;;;;;;;5.80;4.67;;;13.40;99.90;12.80;99774;;;;589609;237;36505;-75
2023/07/22 02:29:37;;;;;;;5.97;4.83;;;13.40;99.90;12.80;99774;;;;589979;237;36409;-76
2023/07/22 02:32:05;;;;;;;4.30;3.37;;;13.40;99.90;12.80;99769;;;;568044;247;24120;-77
2023/07/22 02:34:33;;;;;;;3.50;2.87;;;13.40;99.90;12.80;99770;;;;595065;237;24054;-77
2023/07/22 02:37:01;;;;;;;3.60;3.30;;;13.40;99.90;12.70;99765;;;;595032;237;24032;-76
2023/07/22 02:39:29;;;;;;;4.10;3.10;;;13.40;99.90;12.60;99759;;;;595233;237;24034;-75
2023/07/22 02:41:57;;;;;;;3.50;3.17;;;13.30;99.90;12.60;99756;;;;567931;245;24090;-75
2023/07/22 02:44:25;;;;;;;4.23;2.70;;;13.20;99.90;12.50;99763;;;;594740;238;24108;-77
2023/07/22 02:46:53;;;;;;;5.53;3.03;;;13.20;99.90;12.50;99763;;;;569747;248;24111;-76
2023/07/22 02:49:21;;;;;;;4.80;3.13;;;13.10;99.90;12.40;99770;;;;594854;238;24060;-77
2023/07/22 02:51:48;;;;;;;3.93;3.17;;;13.10;99.90;12.40;99771;;;;595039;238;24043;-76
2023/07/22 02:54:16;;;;;;;4.37;2.77;;;13.00;99.90;12.30;99763;;;;594957;238;24047;-78
2023/07/22 02:56:44;;;;;;;3.63;3.23;;;13.00;99.90;12.30;99766;;;;578407;248;24097;-78
2023/07/22 02:59:12;;;;;;;2.57;2.37;;;13.00;99.90;12.30;99766;;;;594687;238;24039;-80
2023/07/22 03:01:40;;;;;;;3.53;3.10;;;12.90;99.90;12.30;99761;;;;594442;238;24009;-80
2023/07/22 03:04:09;;;;;;;3.53;3.20;;;12.90;99.90;12.30;99756;;;;569454;248;24133;-80
2023/07/22 03:06:36;;;;;;;4.90;3.13;;;12.90;99.90;12.30;99755;;;;594405;233;24092;-78
2023/07/22 03:09:04;;;;;;;2.77;2.47;;;12.90;99.90;12.30;99749;;;;594407;238;24035;-79
2023/07/22 03:11:32;;;;;;;3.10;2.70;;;12.90;99.90;12.30;99751;;;;594449;234;24064;-80
2023/07/22 03:14:00;;;;;;;5.50;4.50;;;12.90;99.90;12.40;99753;;;;589461;238;36316;-80
2023/07/22 03:16:28;;;;;;;4.80;3.90;;;12.90;99.90;12.40;99763;;;;589873;237;45402;-80
2023/07/22 03:18:55;;;;;;;3.73;3.10;;;13.00;99.90;12.50;99762;;;;595738;237;24051;-78
2023/07/22 03:21:23;;;;;;;2.60;2.40;;;13.10;99.90;12.60;99753;;;;595443;237;24032;-78
2023/07/22 03:23:51;;;;;;;2.00;1.90;;;13.20;99.90;12.60;99761;;;;595202;237;24051;-77
2023/07/22 03:26:19;;;;;;;2.77;2.57;;;13.20;99.90;12.70;99761;;;;604952;237;24098;-79
2023/07/22 03:28:47;;;;;;;3.07;2.77;;;13.30;99.90;12.70;99765;;;;570335;248;24082;-79
2023/07/22 03:31:15;;;;;;;6.40;2.50;;;13.30;99.90;12.80;99756;;;;594924;235;24136;-78
2023/07/22 03:33:46;;;;;;;2.63;2.33;;;13.40;99.90;12.90;99764;;;;595234;237;24075;-78
2023/07/22 03:36:12;;;;;;;3.47;2.47;;;13.50;99.90;13.00;99758;;;;595635;235;24059;-81
2023/07/22 03:38:39;;;;;;;2.63;2.43;;;13.50;99.90;13.00;99753;;;;595257;234;24126;-80
2023/07/22 03:41:07;;;;;;;4.17;2.93;;;13.60;99.90;13.20;99759;;;;595495;237;24140;-80
2023/07/22 03:43:35;;;;;;;3.70;2.40;;;13.80;99.90;13.60;99761;;;;571440;248;24184;-77
2023/07/22 03:46:02;;;;;;;5.87;2.37;;;14.10;99.90;13.60;99752;;;;596107;237;24049;-76
2023/07/22 03:48:30;;;;;;;2.60;2.40;;;14.20;99.90;13.60;99757;;;;595906;237;24084;-81
2023/07/22 03:50:58;;;;;;;2.63;2.43;;;14.20;99.90;13.50;99753;;;;569836;248;24123;-80
2023/07/22 03:53:26;;;;;;;3.70;2.37;;;14.20;99.90;13.70;99754;;;;594535;238;24039;-78
2023/07/22 03:55:54;;;;;;;4.10;2.40;;;14.30;99.90;13.70;99755;;;;567607;248;24107;-76
2023/07/22 03:58:22;;;;;;;2.80;2.40;;;14.30;99.90;13.90;99756;;;;603979;238;24043;-77
2023/07/22 04:00:53;;;;;;;2.23;2.13;;;14.40;99.90;14.30;99749;;;;569326;248;24127;-77
2023/07/22 04:03:18;;;;;;;2.37;2.23;;;14.80;99.90;14.90;99753;;;;601940;238;24047;-76
2023/07/22 04:05:46;;;;;;;3.60;2.37;;;15.30;99.90;15.80;99761;;;;569794;248;24087;-76
2023/07/22 04:08:14;;;;;;;2.20;2.10;;;17.30;99.90;16.90;99754;;;;601802;237;24050;-80
2023/07/22 04:10:42;;;;;;;2.27;2.13;;;17.30;99.90;17.60;99757;;;;594789;238;24075;-77
2023/07/22 04:13:10;;;;;;;2.30;1.83;;;18.20;99.90;17.80;99757;;;;576428;247;24116;-81
2023/07/22 04:15:38;;;;;;;1.63;1.53;;;18.50;99.90;17.70;99756;;;;604291;237;24039;-80
2023/07/22 04:18:07;;;;;;;1.30;1.27;;;18.70;99.90;17.90;99753;;;;594890;238;23077;-80
2023/07/22 04:20:35;;;;;;;1.70;1.60;;;19.40;99.90;18.70;99750;;;;594834;238;24096;-79
2023/07/22 04:23:03;;;;;;;1.60;1.47;;;19.30;99.90;19.20;99750;;;;569746;248;24082;-80
2023/07/22 04:25:31;;;;;;;2.87;1.33;;;19.80;99.90;19.60;99746;;;;594936;238;24068;-81
2023/07/22 04:27:59;;;;;;;1.00;1.00;;;20.20;99.90;20.70;99754;;;;604364;236;24014;-76
2023/07/22 04:30:28;;;;;;;1.30;1.20;;;22.60;99.90;22.00;99753;;;;595678;237;24056;-76
2023/07/22 04:32:56;;;;;;;2.53;1.50;;;22.50;99.90;23.20;99763;;;;595729;237;24041;-78
2023/07/22 04:35:26;;;;;;;1.83;1.40;;;23.90;99.90;23.70;99758;;;;595579;237;24040;-77
2023/07/22 04:37:54;;;;;;;0.83;0.83;;;24.50;99.90;23.40;99756;;;;595451;237;23054;-79
2023/07/22 04:40:27;;;;;;;1.23;1.23;;;24.30;99.90;22.80;99758;;;;595801;237;23073;-78
2023/07/22 04:42:55;;;;;;;1.73;1.60;;;23.90;99.90;22.10;99758;;;;596386;237;24020;-81
2023/07/22 04:45:27;;;;;;;2.10;1.67;;;22.50;99.90;21.50;99762;;;;595834;237;24040;-83
2023/07/22 04:47:54;;;;;;;1.47;1.37;;;22.50;99.90;21.00;99754;;;;595696;237;24095;-81
2023/07/22 04:50:22;;;;;;;1.33;1.03;;;21.90;99.90;20.70;99759;;;;570504;248;24185;-79
2023/07/22 04:52:52;;;;;;;1.33;1.30;;;21.10;99.90;20.40;99763;;;;595415;237;24004;-78
2023/07/22 04:55:20;;;;;;;1.60;1.50;;;21.10;99.90;20.20;99756;;;;595194;237;24062;-77
2023/07/22 04:57:51;;;;;;;2.20;1.63;;;20.60;99.90;20.00;99770;;;;595330;237;24081;-81
2023/07/22 05:00:20;;;;;;;2.17;1.43;;;20.40;99.90;19.90;99761;;;;595671;235;24019;-82
2023/07/22 05:02:45;;;;;;;1.97;1.87;;;20.40;99.90;19.80;99762;;;;599323;237;23063;-79
2023/07/22 05:05:13;;;;;;;2.27;1.50;;;20.30;99.90;19.80;99757;;;;592366;238;24096;-76
2023/07/22 05:07:42;;;;;;;1.33;1.33;;;20.20;99.90;19.70;99753;;;;597819;238;24095;-81
2023/07/22 05:10:12;;;;;;;1.57;1.47;;;20.20;99.90;19.70;99757;;;;602251;238;24100;-80
2023/07/22 05:12:39;;;;;;;1.20;1.20;;;20.20;99.90;19.70;99764;;;;595289;234;23048;-79
2023/07/22 05:15:11;;;;;;;1.70;1.60;;;20.20;99.90;19.60;99759;;;;604442;238;24141;-77
2023/07/22 05:17:37;;;;;;;1.90;1.80;;;20.10;99.90;19.50;99768;;;;602286;237;24024;-79
2023/07/22 05:20:14;;;;;;;3.30;1.53;;;20.00;99.90;19.40;99767;;;;570223;247;23182;-78
2023/07/22 05:22:34;;;;;;;2.83;1.50;;;19.80;99.90;19.30;99765;;;;602031;238;24096;-80
2023/07/22 05:25:05;;;;;;;4.83;1.80;;;19.80;99.90;19.10;99769;;;;595099;237;24031;-77
2023/07/22 05:27:37;;;;;;;1.43;1.33;;;19.70;99.90;19.00;99766;;;;595049;238;24032;-76
2023/07/22 05:30:05;;;;;;;1.47;1.37;;;19.50;99.90;18.90;99765;;;;594864;238;24027;-78
2023/07/22 05:32:33;;;;;;;2.30;1.77;;;19.40;99.90;18.80;99763;;;;603112;237;24166;-77
2023/07/22 05:35:02;;;;;;;1.77;1.70;;;19.30;99.90;18.80;99765;;;;598640;238;24053;-77
2023/07/22 05:37:32;;;;;;;1.67;1.60;;;19.30;99.90;18.90;99755;;;;595512;234;24081;-81
2023/07/22 05:39:56;;;;;;;1.80;1.70;;;19.40;99.90;19.10;99756;;;;603096;237;24155;-80
2023/07/22 05:42:24;;;;;;;2.07;1.97;;;19.50;99.90;19.20;99754;;;;596120;237;24033;-76
2023/07/22 05:44:52;;;;;;;2.50;1.90;;;19.60;99.90;19.20;99758;;;;595486;237;24031;-77
2023/07/22 05:47:21;;;;;;;2.23;1.90;;;19.70;99.90;19.30;99761;;;;604754;237;24150;-78
2023/07/22 05:49:49;;;;;;;1.63;1.53;;;19.70;99.90;19.40;99753;;;;602464;237;24061;-78
2023/07/22 05:52:17;;;;;;;1.87;1.77;;;19.80;99.90;19.40;99752;;;;570265;248;24086;-77
2023/07/22 05:54:45;;;;;;;12.00;2.50;;;19.80;99.90;19.30;99759;;;;604936;237;24076;-78
2023/07/22 05:57:13;;;;;;;10.63;2.80;;;19.80;99.90;19.30;99761;;;;595751;237;24075;-77
2023/07/22 05:59:41;;;;;;;4.43;1.83;;;19.80;99.90;19.20;99760;;;;595179;237;23053;-77
2023/07/22 06:02:10;;;;;;;3.07;1.63;;;19.70;99.90;19.10;99761;;;;568189;247;24116;-77
2023/07/22 06:04:38;;;;;;;3.07;2.00;;;19.60;99.90;19.00;99751;;;;595110;237;24037;-77
2023/07/22 06:07:06;;;;;;;4.33;1.80;;;19.50;99.90;18.90;99756;;;;594749;235;24331;-79
2023/07/22 06:09:35;;;;;;;3.58;2.10;;;19.40;99.90;18.90;99754;;;;589369;237;34895;-77
2023/07/22 06:12:03;;;;;;;4.77;2.00;;;19.40;99.90;19.00;99753;;;;569794;243;23125;-78
2023/07/22 06:14:34;;;;;;;11.27;1.83;;;19.40;99.90;19.00;99752;;;;594560;237;23101;-78
2023/07/22 06:16:59;;;;;;;1.60;1.50;;;19.50;99.90;19.10;99755;;;;594436;237;24115;-78
2023/07/22 06:19:27;;;;;;;3.30;1.70;;;19.60;99.90;19.30;99754;;;;594334;238;23070;-77
2023/07/22 06:21:55;;;;;;;1.73;1.60;;;19.70;99.90;19.40;99756;;;;594556;238;24032;-78
2023/07/22 06:24:23;;;;;;;2.30;1.80;;;19.90;99.90;19.60;99751;;;;594420;238;24013;-79
2023/07/22 06:26:50;;;;;;;2.37;2.00;;;20.00;99.90;19.60;99752;;;;569375;248;23155;-79
2023/07/22 06:29:18;;;;;;;2.90;2.30;;;20.10;99.90;19.60;99754;;;;594657;234;24032;-78
2023/07/22 06:31:46;;;;;;;4.30;2.03;;;20.10;99.90;19.60;99755;;;;604497;238;23064;-77
2023/07/22 06:34:18;;;;;;;3.63;1.93;;;20.10;99.90;19.60;99751;;;;569936;248;23116;-75
2023/07/22 06:36:45;;;;;;;3.20;2.13;;;20.00;99.90;19.50;99756;;;;594393;238;24069;-78
2023/07/22 06:39:14;;;;;;;1.90;1.80;;;19.90;99.90;19.50;99759;;;;594885;238;24044;-79
2023/07/22 06:41:42;;;;;;;1.97;1.87;;;19.90;99.90;19.40;99759;;;;594418;238;23073;-76
2023/07/22 06:44:09;;;;;;;3.17;2.10;;;19.90;99.90;19.30;99763;;;;594257;238;24075;-76
2023/07/22 06:46:41;;;;;;;3.23;1.93;;;19.80;99.90;19.20;99762;;;;594707;238;24052;-76
2023/07/22 06:49:11;;;;;;;2.40;2.20;;;19.70;99.90;19.10;99764;;;;594523;238;23038;-78
2023/07/22 06:51:37;;;;;;;2.10;2.00;;;19.50;99.90;19.00;99765;;;;577832;247;23100;-79
2023/07/22 06:54:05;;;;;;;2.27;2.07;;;19.50;99.90;18.90;99767;;;;596013;237;24001;-78
2023/07/22 06:56:33;;;;;;;2.23;2.07;;;19.40;99.90;18.90;99760;;;;578922;242;24120;-80
2023/07/22 06:59:01;;;;;;;1.90;1.80;;;19.40;99.90;19.00;99758;;;;605126;236;24069;-81
2023/07/22 07:01:30;;;;;;;2.20;2.00;;;19.50;99.90;19.10;99758;;;;570543;245;24168;-84
2023/07/22 07:03:57;;;;;;;2.23;2.03;;;19.50;99.90;19.30;99762;;;;593974;237;23113;-78
2023/07/22 07:06:25;;;;;;;2.27;2.17;;;19.70;99.90;19.50;99767;;;;596078;237;23038;-81
2023/07/22 07:08:55;;;;;;;2.43;2.23;;;19.90;99.90;19.80;99766;;;;596295;237;24030;-82
2023/07/22 07:11:21;;;;;;;5.07;1.93;;;20.20;99.90;20.20;99764;;;;570362;243;24071;-77
2023/07/22 07:13:49;;;;;;;3.53;2.60;;;20.70;99.90;20.70;99768;;;;594793;235;24119;-77
2023/07/22 07:16:26;;;;;;;5.70;2.27;;;21.10;99.90;21.10;99767;;;;595554;237;24024;-78
2023/07/22 07:18:55;;;;;;;2.57;2.37;;;21.50;99.90;21.80;99767;;;;594493;237;24045;-79
2023/07/22 07:21:22;;;;;;;3.50;2.33;;;22.20;99.90;22.70;99771;;;;602131;237;24114;-78
2023/07/22 07:23:50;;;;;;;2.20;2.10;;;23.00;99.90;25.30;99776;;;;604287;234;24074;-77
2023/07/22 07:26:20;;;;;;;2.07;1.80;;;25.30;99.90;28.60;99776;;;;593279;237;24104;-77
2023/07/22 07:28:49;;;;;;;2.30;1.93;;;28.40;99.90;31.60;99783;;;;594353;238;23067;-77
2023/07/22 07:31:13;;;;;;;1.62;1.52;;;31.50;99.20;33.80;99783;;;;594146;238;24034;-78
2023/07/22 07:33:42;;;;;;;3.60;1.98;;;35.80;75.40;35.50;99793;;;;578757;245;24085;-76
2023/07/22 07:36:15;;;;;;;5.18;2.03;;;35.70;75.20;36.50;99786;;;;595418;238;24237;-82
2023/07/22 07:38:39;;;;;;;1.92;1.67;;;36.80;68.90;38.30;99788;;;;602680;238;23087;-81
2023/07/22 07:41:11;;;;;;;4.85;1.52;;;38.60;62.00;39.40;99790;;;;595096;238;24141;-78
2023/07/22 07:43:41;;;;;;;3.00;1.50;;;39.90;56.20;38.80;99791;;;;578910;248;23103;-77
2023/07/22 07:46:18;;;;;;;2.30;1.98;;;39.80;52.90;37.60;99795;;;;604310;238;23045;-79
2023/07/22 07:48:48;;;;;;;2.50;1.58;;;39.00;52.70;36.40;99802;;;;570239;248;23185;-78
2023/07/22 07:51:19;;;;;;;1.30;1.30;;;37.80;53.80;35.50;99811;;;;592352;235;23039;-79
2023/07/22 07:53:48;;;;;;;1.77;1.67;;;35.60;54.90;34.30;99808;;;;597309;238;23096;-77
2023/07/22 07:56:13;;;;;;;7.70;1.70;;;35.60;54.80;32.90;99811;;;;569730;248;24145;-77
2023/07/22 07:58:42;;;;;;;1.52;1.37;;;34.30;55.80;31.60;99806;;;;594554;238;23073;-77
2023/07/22 08:01:10;;;;;;;1.50;1.40;;;33.00;57.30;30.50;99809;;;;604412;237;23110;-78
2023/07/22 08:03:41;;;;;;;1.75;1.62;;;31.80;59.50;29.90;99808;;;;593825;237;23024;-80
2023/07/22 08:06:06;;;;;;;3.20;1.90;;;30.20;64.30;29.40;99807;;;;593925;237;24135;-78
2023/07/22 08:08:34;;;;;;;1.90;1.80;;;30.10;64.20;29.10;99822;;;;595889;237;24054;-78
2023/07/22 08:11:05;;;;;;;2.70;1.80;;;29.70;66.00;28.90;99818;;;;595731;237;23032;-78
2023/07/22 08:13:33;;;;;;;1.98;1.62;;;29.50;67.20;28.60;99823;;;;602730;237;24120;-79
2023/07/22 08:16:03;;;;;;;2.00;1.90;;;28.70;68.70;28.10;99809;;;;595550;235;23085;-77
2023/07/22 08:18:32;;;;;;;2.00;1.80;;;28.70;68.70;27.50;99811;;;;602754;237;23096;-77
2023/07/22 08:21:02;;;;;;;2.28;2.05;;;28.20;70.40;27.10;99811;;;;578158;248;23147;-77
2023/07/22 08:23:29;;;;;;;2.13;2.00;;;27.40;75.00;26.80;99813;;;;602587;237;24106;-81
2023/07/22 08:25:57;;;;;;;3.30;2.07;;;27.30;74.80;26.70;99813;;;;598369;237;24078;-78
2023/07/22 08:28:25;;;;;;;2.57;2.37;;;27.20;75.90;26.60;99822;;;;595212;237;23077;-78
2023/07/22 08:30:59;;;;;;;4.83;2.30;;;27.00;77.90;26.60;99821;;;;602540;237;24053;-77
2023/07/22 08:33:26;;;;;;;2.07;1.97;;;27.00;78.70;26.90;99821;;;;604610;237;24058;-85
2023/07/22 08:35:52;;;;;;;2.40;2.20;;;27.60;80.10;27.30;99819;;;;598582;237;24129;-84
2023/07/22 08:38:21;;;;;;;2.23;1.97;;;27.90;79.90;27.60;99826;;;;603062;237;23062;-77
2023/07/22 08:40:52;;;;;;;2.30;2.20;;;27.90;79.30;27.80;99836;;;;594808;238;24023;-77
2023/07/22 08:43:17;;;;;;;2.50;2.30;;;28.10;78.80;27.60;99824;;;;578335;247;23151;-78
2023/07/22 08:45:48;;;;;;;2.30;2.12;;;28.10;78.70;27.10;99825;;;;598657;238;23049;-78
2023/07/22 08:48:13;;;;;;;2.07;1.97;;;27.30;80.20;26.70;99825;;;;592389;238;24129;-78
2023/07/22 08:50:50;;;;;;;4.60;2.50;;;27.30;80.20;26.30;99836;;;;602182;238;24137;-76
2023/07/22 08:53:21;;;;;;;1.93;1.83;;;26.90;80.10;25.80;99825;;;;578484;244;23062;-77
2023/07/22 08:55:50;;;;;;;2.83;2.03;;;26.40;80.20;25.40;99826;;;;595596;238;23125;-78
2023/07/22 08:58:14;;;;;;;3.20;2.23;;;26.00;81.00;25.30;99823;;;;601998;237;23088;-77
2023/07/22 09:00:42;;;;;;;2.87;2.33;;;25.80;81.60;25.10;99823;;;;594463;238;24115;-85
2023/07/22 09:03:10;;;;;;;4.00;2.23;;;25.60;81.70;25.60;99823;;;;604478;238;23030;-83
2023/07/22 09:05:39;;;;;;;2.43;2.27;;;25.80;82.00;26.90;99827;;;;590669;243;23126;-79
2023/07/22 09:08:10;;;;;;;4.53;2.35;;;27.00;79.80;29.30;99819;;;;579752;243;23077;-79
2023/07/22 09:10:38;;;;;;;2.78;2.53;;;29.10;77.00;31.80;99827;;;;594953;234;23037;-78
2023/07/22 09:13:06;;;;;;;2.60;2.40;;;32.90;65.30;32.50;99819;;;;567923;245;24166;-78
2023/07/22 09:15:35;;;;;;;2.47;2.28;;;33.40;61.70;32.80;99817;;;;603777;237;24066;-80
2023/07/22 09:18:05;;;;;;;2.75;2.03;;;33.40;61.60;32.00;99825;;;;581606;243;23075;-85
2023/07/22 09:20:34;;;;;;;2.87;2.70;;;33.00;61.70;30.80;99818;;;;595924;237;23037;-81
2023/07/22 09:23:01;;;;;;;3.10;2.70;;;32.00;61.70;30.20;99826;;;;604733;237;23077;-84
2023/07/22 09:25:29;;;;;;;3.12;2.80;;;31.20;63.00;29.20;99826;;;;595296;237;24105;-79
2023/07/22 09:28:03;;;;;;;3.58;3.30;;;29.40;66.70;28.40;99821;;;;598694;237;23090;-81
2023/07/22 09:30:28;;;;;;;3.25;2.95;;;29.30;66.60;28.10;99831;;;;597469;237;24052;-84
2023/07/22 09:33:01;;;;;;;5.53;3.25;;;28.80;68.90;27.60;99836;;;;602573;237;23104;-82
2023/07/22 09:35:29;;;;;;;7.18;3.42;;;28.40;68.90;27.80;99833;;;;592649;237;23156;-84
2023/07/22 09:38:00;;;;;;;2.78;2.55;;;28.20;71.50;29.20;99832;;;;594641;237;23109;-86
2023/07/22 09:40:24;;;;;;;2.97;2.40;;;29.40;69.90;31.60;99834;;;;593006;237;23042;-82
2023/07/22 09:42:55;;;;;;;4.18;2.10;;;31.60;66.40;34.10;99834;;;;602684;237;24078;-85
2023/07/22 09:45:29;;;;;;;2.15;1.95;;;34.20;60.50;35.10;99842;;;;602841;237;24107;-84
2023/07/22 09:47:57;;;;;;;2.60;1.55;;;35.70;57.50;34.90;99837;;;;597781;237;23047;-85
2023/07/22 09:50:24;;;;;;;1.50;1.40;;;35.80;55.10;35.70;99839;;;;595136;233;23050;-85
2023/07/22 09:52:59;;;;;;;2.05;1.70;;;38.30;50.60;37.70;99853;;;;594758;238;23080;-86
2023/07/22 09:55:28;;;;;;;4.07;1.37;;;38.20;50.50;39.30;99866;;;;602697;238;23037;-86
2023/07/22 09:57:54;;;;;;;4.75;2.17;;;40.10;48.50;40.40;99870;;;;572717;246;23131;-87
2023/07/22 10:00:22;;;;;;;1.52;1.52;;;41.40;45.60;39.90;99861;;;;593345;238;23109;-84
2023/07/22 10:02:50;;;;;;;1.55;1.55;;;41.30;44.90;39.40;99871;;;;602198;238;23121;-83
2023/07/22 10:05:23;;;;;;;2.00;1.50;;;40.80;45.40;39.20;99877;;;;602112;238;23024;-82
2023/07/22 10:07:51;;;;;;;1.70;1.60;;;40.50;45.50;38.40;99874;;;;594895;238;23033;-80
2023/07/22 10:10:19;;;;;;;1.10;1.10;;;39.80;45.30;38.00;99876;;;;590257;242;23055;-84
2023/07/22 10:12:47;;;;;;;1.30;1.25;;;39.30;46.20;38.40;99885;;;;594995;238;23059;-79
2023/07/22 10:15:19;;;;;;;1.30;1.20;;;39.20;45.90;38.10;99873;;;;595208;238;23039;-83
2023/07/22 10:17:44;;;;;;;1.40;1.33;;;39.20;45.80;36.90;99882;;;;594924;238;23104;-82
2023/07/22 10:20:15;;;;;;;1.20;1.20;;;38.40;45.90;34.90;99879;;;;578805;248;24127;-80
2023/07/22 10:22:43;;;;;;;1.23;1.23;;;36.50;46.80;33.60;99878;;;;604249;238;23059;-84
2023/07/22 10:25:08;;;;;;;1.40;1.40;;;35.00;48.80;31.90;99876;;;;578591;247;23116;-79
2023/07/22 10:27:39;;;;;;;1.62;1.55;;;33.40;50.00;30.60;99883;;;;606174;235;23040;-83
2023/07/22 10:30:07;;;;;;;2.05;1.23;;;31.80;52.60;29.70;99893;;;;596103;237;23047;-80
2023/07/22 10:32:37;;;;;;;1.33;1.33;;;30.60;55.10;28.70;99890;;;;605381;237;23030;-79
2023/07/22 10:35:05;;;;;;;1.62;1.50;;;29.60;56.70;27.90;99893;;;;603047;237;24065;-81
2023/07/22 10:37:36;;;;;;;2.20;1.67;;;28.60;58.70;27.20;99897;;;;605071;237;23080;-84
2023/07/22 10:40:26;;;;;;;1.60;1.50;;;27.80;60.20;26.30;99904;;;;604608;237;23096;-80
2023/07/22 10:42:59;;;;;;;5.37;1.60;;;26.90;62.90;25.20;99910;;;;602635;237;24051;-82
2023/07/22 10:45:30;;;;;;;2.20;2.00;;;25.80;67.00;24.50;99907;;;;595527;237;24056;-79
2023/07/22 10:48:07;;;;;;;1.70;1.60;;;25.00;70.20;24.10;99909;;;;597483;237;34958;-79
2023/07/22 10:50:47;;;;;;;3.00;1.43;;;24.50;72.40;24.10;99912;;;;593576;237;23042;-79
2023/07/22 10:53:27;;;;;;;2.00;1.30;;;24.40;73.20;24.20;99912;;;;578497;243;24130;-77
2023/07/22 10:56:13;;;;;;;3.20;1.43;;;24.50;74.50;24.50;99908;;;;605651;237;23080;-78
2023/07/22 10:58:47;;;;;;;1.53;1.43;;;24.70;74.30;24.60;99911;;;;596099;237;23097;-79
2023/07/22 11:01:30;;;;;;;1.27;1.27;;;24.90;73.00;24.50;99905;;;;595781;237;23091;-82
2023/07/22 11:04:06;;;;;;;1.20;1.20;;;24.80;72.50;24.90;99907;;;;594592;238;23077;-82
2023/07/22 11:06:34;;;;;;;1.30;1.17;;;25.20;72.70;25.30;99910;;;;602321;238;24060;-76
2023/07/22 11:09:03;;;;;;;2.00;1.90;;;25.60;71.50;25.40;99912;;;;594914;238;23052;-79
2023/07/22 11:11:45;;;;;;;1.40;1.30;;;25.80;70.50;25.30;99913;;;;595146;238;24085;-78
2023/07/22 11:14:25;;;;;;;1.50;1.30;;;25.70;70.60;25.20;99917;;;;595190;238;24063;-79
2023/07/22 11:16:50;;;;;;;3.40;1.50;;;25.60;70.30;24.80;99916;;;;597567;238;23113;-78
2023/07/22 11:19:18;;;;;;;1.30;1.20;;;25.30;71.20;24.50;99915;;;;595577;238;24023;-77
2023/07/22 11:21:49;;;;;;;1.80;1.30;;;25.00;71.60;24.20;99919;;;;595732;238;23068;-77
2023/07/22 11:24:13;;;;;;;2.30;1.23;;;24.70;72.10;24.10;99912;;;;570588;248;23097;-78